sensor_id;sensor_type;location;lat;lon;timestamp;pressure;altitude;pressure_sealevel;temperature;humidity
46394;BME280;32099;53.588;10.176;2023-12-07T00:00:12;101359.78;;;1.60;94.45
46394;BME280;32099;53.588;10.176;2023-12-07T00:02:38;101355.50;;;1.57;94.65
46394;BME280;32099;53.588;10.176;2023-12-07T00:05:04;101357.56;;;1.53;95.43
46394;BME280;32099;53.588;10.176;2023-12-07T00:07:30;101360.34;;;1.52;94.87
46394;BME280;32099;53.588;10.176;2023-12-07T00:09:55;101369.28;;;1.52;95.72
46394;BME280;32099;53.588;10.176;2023-12-07T00:12:21;101361.97;;;1.54;95.55
46394;BME280;32099;53.588;10.176;2023-12-07T00:14:46;101356.59;;;1.54;95.41
46394;BME280;32099;53.588;10.176;2023-12-07T00:17:15;101359.50;;;1.51;95.58
46394;BME280;32099;53.588;10.176;2023-12-07T00:19:40;101361.63;;;1.46;95.77
46394;BME280;32099;53.588;10.176;2023-12-07T00:22:06;101357.22;;;1.45;95.92
46394;BME280;32099;53.588;10.176;2023-12-07T00:24:32;101365.19;;;1.47;96.24
46394;BME280;32099;53.588;10.176;2023-12-07T00:26:57;101375.94;;;1.47;96.01
46394;BME280;32099;53.588;10.176;2023-12-07T00:29:23;101379.38;;;1.49;96.26
46394;BME280;32099;53.588;10.176;2023-12-07T00:31:48;101378.50;;;1.48;95.58
46394;BME280;32099;53.588;10.176;2023-12-07T00:34:17;101358.63;;;1.38;95.89
46394;BME280;32099;53.588;10.176;2023-12-07T00:36:42;101379.28;;;1.50;95.49
46394;BME280;32099;53.588;10.176;2023-12-07T00:39:08;101375.81;;;1.48;96.02
46394;BME280;32099;53.588;10.176;2023-12-07T00:41:34;101389.06;;;1.51;95.14
46394;BME280;32099;53.588;10.176;2023-12-07T00:43:59;101382.81;;;1.51;95.12
46394;BME280;32099;53.588;10.176;2023-12-07T00:46:25;101381.31;;;1.47;95.74
46394;BME280;32099;53.588;10.176;2023-12-07T00:48:50;101376.16;;;1.44;95.34
46394;BME280;32099;53.588;10.176;2023-12-07T00:51:19;101385.19;;;1.43;96.21
46394;BME280;32099;53.588;10.176;2023-12-07T00:53:44;101394.00;;;1.45;95.83
46394;BME280;32099;53.588;10.176;2023-12-07T00:56:10;101384.00;;;1.47;95.65
46394;BME280;32099;53.588;10.176;2023-12-07T00:58:36;101385.06;;;1.44;96.12
46394;BME280;32099;53.588;10.176;2023-12-07T01:01:01;101394.84;;;1.45;96.05
46394;BME280;32099;53.588;10.176;2023-12-07T01:03:27;101395.59;;;1.47;96.27
46394;BME280;32099;53.588;10.176;2023-12-07T01:05:52;101391.09;;;1.48;95.56
46394;BME280;32099;53.588;10.176;2023-12-07T01:08:21;101389.25;;;1.48;95.84
46394;BME280;32099;53.588;10.176;2023-12-07T01:10:46;101393.69;;;1.49;94.89
46394;BME280;32099;53.588;10.176;2023-12-07T01:13:12;101396.25;;;1.51;96.11
46394;BME280;32099;53.588;10.176;2023-12-07T01:15:38;101396.91;;;1.54;95.42
46394;BME280;32099;53.588;10.176;2023-12-07T01:18:03;101409.34;;;1.56;94.85
46394;BME280;32099;53.588;10.176;2023-12-07T01:20:29;101404.97;;;1.54;95.29
46394;BME280;32099;53.588;10.176;2023-12-07T01:22:55;101414.84;;;1.54;95.87
46394;BME280;32099;53.588;10.176;2023-12-07T01:25:23;101409.47;;;1.54;95.19
46394;BME280;32099;53.588;10.176;2023-12-07T01:27:48;101427.13;;;1.58;95.47
46394;BME280;32099;53.588;10.176;2023-12-07T01:30:14;101425.19;;;1.60;95.71
46394;BME280;32099;53.588;10.176;2023-12-07T01:32:40;101432.38;;;1.60;95.23
46394;BME280;32099;53.588;10.176;2023-12-07T01:35:06;101444.09;;;1.59;95.01
46394;BME280;32099;53.588;10.176;2023-12-07T01:37:33;101427.88;;;1.60;95.82
46394;BME280;32099;53.588;10.176;2023-12-07T01:39:58;101433.13;;;1.62;95.24
46394;BME280;32099;53.588;10.176;2023-12-07T01:42:26;101429.56;;;1.61;95.08
46394;BME280;32099;53.588;10.176;2023-12-07T01:44:52;101432.06;;;1.64;95.50
46394;BME280;32099;53.588;10.176;2023-12-07T01:47:18;101435.63;;;1.65;95.38
46394;BME280;32099;53.588;10.176;2023-12-07T01:49:44;101442.81;;;1.64;95.00
46394;BME280;32099;53.588;10.176;2023-12-07T01:52:09;101443.56;;;1.66;95.42
46394;BME280;32099;53.588;10.176;2023-12-07T01:54:36;101455.28;;;1.65;95.01
46394;BME280;32099;53.588;10.176;2023-12-07T01:57:03;101458.84;;;1.66;95.32
46394;BME280;32099;53.588;10.176;2023-12-07T01:59:32;101441.84;;;1.65;95.36
46394;BME280;32099;53.588;10.176;2023-12-07T02:01:58;101444.41;;;1.67;94.42
46394;BME280;32099;53.588;10.176;2023-12-07T02:04:24;101446.38;;;1.65;95.07
46394;BME280;32099;53.588;10.176;2023-12-07T02:06:49;101441.84;;;1.65;94.22
46394;BME280;32099;53.588;10.176;2023-12-07T02:09:17;101444.53;;;1.65;94.75
46394;BME280;32099;53.588;10.176;2023-12-07T02:11:43;101442.94;;;1.63;94.14
46394;BME280;32099;53.588;10.176;2023-12-07T02:14:08;101436.59;;;1.64;94.57
46394;BME280;32099;53.588;10.176;2023-12-07T02:16:39;101440.25;;;1.63;94.37
46394;BME280;32099;53.588;10.176;2023-12-07T02:19:14;101446.38;;;1.65;95.05
46394;BME280;32099;53.588;10.176;2023-12-07T02:21:50;101447.09;;;1.67;95.23
46394;BME280;32099;53.588;10.176;2023-12-07T02:24:21;101449.78;;;1.67;94.25
46394;BME280;32099;53.588;10.176;2023-12-07T02:26:50;101448.75;;;1.69;94.75
46394;BME280;32099;53.588;10.176;2023-12-07T02:29:15;101446.13;;;1.68;94.06
46394;BME280;32099;53.588;10.176;2023-12-07T02:31:41;101445.94;;;1.71;94.68
46394;BME280;32099;53.588;10.176;2023-12-07T02:34:07;101451.31;;;1.71;94.05
46394;BME280;32099;53.588;10.176;2023-12-07T02:36:33;101452.28;;;1.70;94.77
46394;BME280;32099;53.588;10.176;2023-12-07T02:39:00;101463.91;;;1.71;94.41
46394;BME280;32099;53.588;10.176;2023-12-07T02:41:27;101469.28;;;1.71;94.52
46394;BME280;32099;53.588;10.176;2023-12-07T02:43:57;101460.97;;;1.74;94.75
46394;BME280;32099;53.588;10.176;2023-12-07T02:46:24;101455.53;;;1.75;94.33
46394;BME280;32099;53.588;10.176;2023-12-07T02:48:50;101463.47;;;1.77;94.65
46394;BME280;32099;53.588;10.176;2023-12-07T02:51:17;101458.09;;;1.77;93.75
46394;BME280;32099;53.588;10.176;2023-12-07T02:53:43;101465.81;;;1.81;94.39
46394;BME280;32099;53.588;10.176;2023-12-07T02:56:09;101462.63;;;1.76;94.57
46394;BME280;32099;53.588;10.176;2023-12-07T02:58:35;101468.09;;;1.75;94.28
46394;BME280;32099;53.588;10.176;2023-12-07T03:01:03;101472.72;;;1.73;94.24
46394;BME280;32099;53.588;10.176;2023-12-07T03:03:29;101470.13;;;1.71;94.50
46394;BME280;32099;53.588;10.176;2023-12-07T03:05:55;101476.28;;;1.73;94.40
46394;BME280;32099;53.588;10.176;2023-12-07T03:08:20;101471.84;;;1.72;94.86
46394;BME280;32099;53.588;10.176;2023-12-07T03:10:46;101483.47;;;1.73;94.81
46394;BME280;32099;53.588;10.176;2023-12-07T03:13:12;101487.03;;;1.73;94.15
46394;BME280;32099;53.588;10.176;2023-12-07T03:15:38;101475.41;;;1.73;94.26
46394;BME280;32099;53.588;10.176;2023-12-07T03:18:06;101471.84;;;1.72;94.79
46394;BME280;32099;53.588;10.176;2023-12-07T03:20:32;101478.00;;;1.74;94.37
46394;BME280;32099;53.588;10.176;2023-12-07T03:22:58;101473.47;;;1.75;94.24
46394;BME280;32099;53.588;10.176;2023-12-07T03:25:23;101472.72;;;1.73;94.21
46394;BME280;32099;53.588;10.176;2023-12-07T03:27:50;101471.09;;;1.70;94.90
46394;BME280;32099;53.588;10.176;2023-12-07T03:30:15;101480.91;;;1.71;95.12
46394;BME280;32099;53.588;10.176;2023-12-07T03:32:41;101489.84;;;1.72;94.62
46394;BME280;32099;53.588;10.176;2023-12-07T03:35:10;101488.97;;;1.71;94.68
46394;BME280;32099;53.588;10.176;2023-12-07T03:37:35;101483.78;;;1.68;94.42
46394;BME280;32099;53.588;10.176;2023-12-07T03:40:01;101480.03;;;1.71;94.67
46394;BME280;32099;53.588;10.176;2023-12-07T03:42:27;101488.19;;;1.69;95.10
46394;BME280;32099;53.588;10.176;2023-12-07T03:44:52;101482.72;;;1.71;94.77
46394;BME280;32099;53.588;10.176;2023-12-07T03:47:18;101484.47;;;1.72;95.31
46394;BME280;32099;53.588;10.176;2023-12-07T03:49:44;101486.47;;;1.68;94.72
46394;BME280;32099;53.588;10.176;2023-12-07T03:52:13;101485.63;;;1.67;95.19
46394;BME280;32099;53.588;10.176;2023-12-07T03:54:38;101497.22;;;1.68;94.65
46394;BME280;32099;53.588;10.176;2023-12-07T03:57:04;101491.66;;;1.71;95.93
46394;BME280;32099;53.588;10.176;2023-12-07T03:59:30;101493.50;;;1.71;95.43
46394;BME280;32099;53.588;10.176;2023-12-07T04:01:56;101487.16;;;1.72;95.32
46394;BME280;32099;53.588;10.176;2023-12-07T04:04:21;101486.28;;;1.71;94.84
46394;BME280;32099;53.588;10.176;2023-12-07T04:06:47;101490.88;;;1.69;96.29
46394;BME280;32099;53.588;10.176;2023-12-07T04:09:15;101488.44;;;1.66;96.01
46394;BME280;32099;53.588;10.176;2023-12-07T04:11:41;101488.31;;;1.67;95.88
46394;BME280;32099;53.588;10.176;2023-12-07T04:14:07;101491.66;;;1.71;95.61
46394;BME280;32099;53.588;10.176;2023-12-07T04:16:32;101504.78;;;1.76;95.37
46394;BME280;32099;53.588;10.176;2023-12-07T04:18:58;101496.38;;;1.80;95.10
46394;BME280;32099;53.588;10.176;2023-12-07T04:21:23;101496.28;;;1.82;95.07
46394;BME280;32099;53.588;10.176;2023-12-07T04:23:49;101495.09;;;1.86;95.20
46394;BME280;32099;53.588;10.176;2023-12-07T04:26:17;101500.78;;;1.81;94.65
46394;BME280;32099;53.588;10.176;2023-12-07T04:28:43;101495.31;;;1.83;95.21
46394;BME280;32099;53.588;10.176;2023-12-07T04:31:09;101494.44;;;1.82;94.38
46394;BME280;32099;53.588;10.176;2023-12-07T04:33:35;101495.41;;;1.81;95.33
46394;BME280;32099;53.588;10.176;2023-12-07T04:36:00;101497.13;;;1.82;94.97
46394;BME280;32099;53.588;10.176;2023-12-07T04:38:26;101491.75;;;1.82;94.38
46394;BME280;32099;53.588;10.176;2023-12-07T04:40:52;101489.94;;;1.83;94.47
46394;BME280;32099;53.588;10.176;2023-12-07T04:43:21;101485.22;;;1.87;94.85
46394;BME280;32099;53.588;10.176;2023-12-07T04:45:47;101492.31;;;1.88;94.18
46394;BME280;32099;53.588;10.176;2023-12-07T04:48:13;101499.50;;;1.87;94.32
46394;BME280;32099;53.588;10.176;2023-12-07T04:50:38;101506.81;;;1.85;94.17
46394;BME280;32099;53.588;10.176;2023-12-07T04:53:04;101505.00;;;1.85;94.30
46394;BME280;32099;53.588;10.176;2023-12-07T04:55:30;101509.75;;;1.82;95.15
46394;BME280;32099;53.588;10.176;2023-12-07T04:57:56;101509.81;;;1.80;94.30
46394;BME280;32099;53.588;10.176;2023-12-07T05:00:24;101506.16;;;1.81;94.44
46394;BME280;32099;53.588;10.176;2023-12-07T05:02:50;101513.41;;;1.81;95.02
46394;BME280;32099;53.588;10.176;2023-12-07T05:05:16;101524.34;;;1.78;95.11
46394;BME280;32099;53.588;10.176;2023-12-07T05:07:42;101522.44;;;1.80;95.01
46394;BME280;32099;53.588;10.176;2023-12-07T05:10:08;101525.13;;;1.80;94.60
46394;BME280;32099;53.588;10.176;2023-12-07T05:12:34;101535.88;;;1.80;95.47
46394;BME280;32099;53.588;10.176;2023-12-07T05:14:59;101526.72;;;1.82;95.09
46394;BME280;32099;53.588;10.176;2023-12-07T05:17:28;101523.94;;;1.84;95.76
46394;BME280;32099;53.588;10.176;2023-12-07T05:19:54;101523.94;;;1.84;95.29
46394;BME280;32099;53.588;10.176;2023-12-07T05:22:19;101530.38;;;1.81;95.08
46394;BME280;32099;53.588;10.176;2023-12-07T05:24:45;101527.81;;;1.80;95.38
46394;BME280;32099;53.588;10.176;2023-12-07T05:27:11;101524.34;;;1.78;95.14
46394;BME280;32099;53.588;10.176;2023-12-07T05:29:37;101536.84;;;1.79;95.01
46394;BME280;32099;53.588;10.176;2023-12-07T05:32:04;101532.31;;;1.79;95.64
46394;BME280;32099;53.588;10.176;2023-12-07T05:34:33;101531.34;;;1.80;95.06
46394;BME280;32099;53.588;10.176;2023-12-07T05:36:59;101531.34;;;1.80;95.06
46394;BME280;32099;53.588;10.176;2023-12-07T05:39:25;101477.31;;;1.45;95.24
46394;BME280;32099;53.588;10.176;2023-12-07T05:41:51;101532.22;;;1.81;95.25
46394;BME280;32099;53.588;10.176;2023-12-07T05:44:17;101533.19;;;1.80;94.41
46394;BME280;32099;53.588;10.176;2023-12-07T05:46:43;101542.97;;;1.81;94.79
46394;BME280;32099;53.588;10.176;2023-12-07T05:49:08;101542.84;;;1.82;95.03
46394;BME280;32099;53.588;10.176;2023-12-07T05:51:37;101542.97;;;1.81;95.07
46394;BME280;32099;53.588;10.176;2023-12-07T05:54:02;101546.44;;;1.83;94.82
46394;BME280;32099;53.588;10.176;2023-12-07T05:56:28;101549.97;;;1.83;94.37
46394;BME280;32099;53.588;10.176;2023-12-07T05:58:54;101534.78;;;1.82;94.55
46394;BME280;32099;53.588;10.176;2023-12-07T06:01:19;101532.88;;;1.84;95.26
46394;BME280;32099;53.588;10.176;2023-12-07T06:03:45;101540.81;;;1.86;94.33
46394;BME280;32099;53.588;10.176;2023-12-07T06:06:11;101542.53;;;1.87;94.79
46394;BME280;32099;53.588;10.176;2023-12-07T06:08:40;101531.69;;;1.89;94.41
46394;BME280;32099;53.588;10.176;2023-12-07T06:11:05;101531.56;;;1.90;94.09
46394;BME280;32099;53.588;10.176;2023-12-07T06:13:31;101545.03;;;1.90;94.09
46394;BME280;32099;53.588;10.176;2023-12-07T06:15:57;101534.69;;;1.84;94.38
46394;BME280;32099;53.588;10.176;2023-12-07T06:18:22;101539.22;;;1.83;94.34
46394;BME280;32099;53.588;10.176;2023-12-07T06:20:48;101550.72;;;1.85;94.41
46394;BME280;32099;53.588;10.176;2023-12-07T06:23:14;101548.88;;;1.86;94.24
46394;BME280;32099;53.588;10.176;2023-12-07T06:25:42;101494.53;;;1.55;94.62
46394;BME280;32099;53.588;10.176;2023-12-07T06:28:08;101549.84;;;1.85;94.92
46394;BME280;32099;53.588;10.176;2023-12-07T06:30:34;101544.47;;;1.85;94.14
46394;BME280;32099;53.588;10.176;2023-12-07T06:33:00;101545.47;;;1.84;94.83
46394;BME280;32099;53.588;10.176;2023-12-07T06:35:26;101546.19;;;1.86;94.40
46394;BME280;32099;53.588;10.176;2023-12-07T06:37:52;101544.38;;;1.87;94.53
46394;BME280;32099;53.588;10.176;2023-12-07T06:40:18;101546.44;;;1.83;94.89
46394;BME280;32099;53.588;10.176;2023-12-07T06:42:46;101559.00;;;1.82;94.27
46394;BME280;32099;53.588;10.176;2023-12-07T06:45:12;101559.75;;;1.84;94.35
46394;BME280;32099;53.588;10.176;2023-12-07T06:47:38;101557.91;;;1.85;94.59
46394;BME280;32099;53.588;10.176;2023-12-07T06:50:04;101554.69;;;1.80;95.33
46394;BME280;32099;53.588;10.176;2023-12-07T06:52:30;101565.66;;;1.77;95.48
46394;BME280;32099;53.588;10.176;2023-12-07T06:54:56;101573.84;;;1.75;95.08
46394;BME280;32099;53.588;10.176;2023-12-07T06:57:22;101575.56;;;1.76;94.67
46394;BME280;32099;53.588;10.176;2023-12-07T06:59:50;101577.19;;;1.79;95.09
46394;BME280;32099;53.588;10.176;2023-12-07T07:02:16;101585.03;;;1.82;94.81
46394;BME280;32099;53.588;10.176;2023-12-07T07:04:42;101579.56;;;1.83;95.26
46394;BME280;32099;53.588;10.176;2023-12-07T07:07:07;101570.53;;;1.84;94.65
46394;BME280;32099;53.588;10.176;2023-12-07T07:09:33;101578.59;;;1.84;94.42
46394;BME280;32099;53.588;10.176;2023-12-07T07:11:59;101585.03;;;1.82;94.87
46394;BME280;32099;53.588;10.176;2023-12-07T07:14:24;101578.59;;;1.84;94.37
46394;BME280;32099;53.588;10.176;2023-12-07T07:16:53;101576.75;;;1.85;95.00
46394;BME280;32099;53.588;10.176;2023-12-07T07:19:19;101577.81;;;1.82;94.47
46394;BME280;32099;53.588;10.176;2023-12-07T07:21:45;101577.19;;;1.79;94.79
46394;BME280;32099;53.588;10.176;2023-12-07T07:24:10;101593.44;;;1.77;94.69
46394;BME280;32099;53.588;10.176;2023-12-07T07:26:36;101592.25;;;1.81;95.22
46394;BME280;32099;53.588;10.176;2023-12-07T07:29:02;101594.72;;;1.84;95.32
46394;BME280;32099;53.588;10.176;2023-12-07T07:31:27;101596.34;;;1.87;95.41
46394;BME280;32099;53.588;10.176;2023-12-07T07:33:56;101594.41;;;1.89;95.03
46394;BME280;32099;53.588;10.176;2023-12-07T07:36:22;101587.09;;;1.91;94.55
46394;BME280;32099;53.588;10.176;2023-12-07T07:38:47;101587.09;;;1.91;94.90
46394;BME280;32099;53.588;10.176;2023-12-07T07:41:13;101585.38;;;1.90;94.73
46394;BME280;32099;53.588;10.176;2023-12-07T07:43:39;101585.50;;;1.89;95.25
46394;BME280;32099;53.588;10.176;2023-12-07T07:46:04;101583.53;;;1.91;94.32
46394;BME280;32099;53.588;10.176;2023-12-07T07:48:30;101580.97;;;1.89;94.37
46394;BME280;32099;53.588;10.176;2023-12-07T07:50:59;101585.56;;;1.87;95.42
46394;BME280;32099;53.588;10.176;2023-12-07T07:53:25;101592.69;;;1.88;94.67
46394;BME280;32099;53.588;10.176;2023-12-07T07:55:50;101596.13;;;1.90;94.58
46394;BME280;32099;53.588;10.176;2023-12-07T07:58:16;101595.16;;;1.91;94.79
46394;BME280;32099;53.588;10.176;2023-12-07T08:00:42;101602.28;;;1.92;94.76
46394;BME280;32099;53.588;10.176;2023-12-07T08:03:08;101605.59;;;1.96;95.35
46394;BME280;32099;53.588;10.176;2023-12-07T08:05:34;101610.78;;;1.99;94.34
46394;BME280;32099;53.588;10.176;2023-12-07T08:08:02;101603.34;;;2.03;94.31
46394;BME280;32099;53.588;10.176;2023-12-07T08:10:28;101612.19;;;2.05;94.89
46394;BME280;32099;53.588;10.176;2023-12-07T08:12:54;101613.03;;;2.05;94.72
46394;BME280;32099;53.588;10.176;2023-12-07T08:15:20;101621.13;;;2.05;94.18
46394;BME280;32099;53.588;10.176;2023-12-07T08:17:45;101613.16;;;2.04;95.07
46394;BME280;32099;53.588;10.176;2023-12-07T08:20:11;101610.56;;;2.02;94.52
46394;BME280;32099;53.588;10.176;2023-12-07T08:22:37;101625.00;;;2.01;95.26
46394;BME280;32099;53.588;10.176;2023-12-07T08:25:06;101626.81;;;2.00;95.00
46394;BME280;32099;53.588;10.176;2023-12-07T08:27:32;101630.38;;;2.01;94.65
46394;BME280;32099;53.588;10.176;2023-12-07T08:29:58;101633.72;;;2.05;94.79
46394;BME280;32099;53.588;10.176;2023-12-07T08:32:24;101626.63;;;2.04;95.04
46394;BME280;32099;53.588;10.176;2023-12-07T08:34:50;101628.34;;;2.05;95.28
46394;BME280;32099;53.588;10.176;2023-12-07T08:37:15;101629.09;;;2.07;94.75
46394;BME280;32099;53.588;10.176;2023-12-07T08:39:41;101629.81;;;2.09;94.60
46394;BME280;32099;53.588;10.176;2023-12-07T08:42:09;101625.22;;;2.11;95.27
46394;BME280;32099;53.588;10.176;2023-12-07T08:44:35;101636.72;;;2.13;95.09
46394;BME280;32099;53.588;10.176;2023-12-07T08:47:01;101632.97;;;2.15;94.51
46394;BME280;32099;53.588;10.176;2023-12-07T08:49:27;101642.88;;;2.15;95.35
46394;BME280;32099;53.588;10.176;2023-12-07T08:51:53;101637.50;;;2.15;94.59
46394;BME280;32099;53.588;10.176;2023-12-07T08:54:18;101637.16;;;2.20;94.59
46394;BME280;32099;53.588;10.176;2023-12-07T08:56:44;101630.63;;;2.24;95.33
46394;BME280;32099;53.588;10.176;2023-12-07T08:59:13;101631.16;;;2.29;95.43
46394;BME280;32099;53.588;10.176;2023-12-07T09:01:39;101626.41;;;2.33;95.05
46394;BME280;32099;53.588;10.176;2023-12-07T09:04:04;101624.25;;;2.38;95.31
46394;BME280;32099;53.588;10.176;2023-12-07T09:06:30;101634.69;;;2.42;94.83
46394;BME280;32099;53.588;10.176;2023-12-07T09:08:56;101631.25;;;2.40;94.86
46394;BME280;32099;53.588;10.176;2023-12-07T09:11:22;101634.16;;;2.37;94.78
46394;BME280;32099;53.588;10.176;2023-12-07T09:13:47;101638.88;;;2.34;95.02
46394;BME280;32099;53.588;10.176;2023-12-07T09:16:16;101635.75;;;2.27;95.60
46394;BME280;32099;53.588;10.176;2023-12-07T09:18:42;101638.69;;;2.24;96.12
46394;BME280;32099;53.588;10.176;2023-12-07T09:21:08;101643.63;;;2.17;96.18
46394;BME280;32099;53.588;10.176;2023-12-07T09:23:33;101635.00;;;2.12;96.34
46394;BME280;32099;53.588;10.176;2023-12-07T09:25:59;101634.16;;;2.11;96.39
46394;BME280;32099;53.588;10.176;2023-12-07T09:28:25;101640.19;;;2.15;96.93
46394;BME280;32099;53.588;10.176;2023-12-07T09:30:51;101630.81;;;2.21;96.98
46394;BME280;32099;53.588;10.176;2023-12-07T09:33:19;101635.75;;;2.27;96.29
46394;BME280;32099;53.588;10.176;2023-12-07T09:35:45;101638.38;;;2.28;96.26
46394;BME280;32099;53.588;10.176;2023-12-07T09:38:10;101643.31;;;2.35;96.72
46394;BME280;32099;53.588;10.176;2023-12-07T09:40:36;101645.78;;;2.38;96.66
46394;BME280;32099;53.588;10.176;2023-12-07T09:43:02;101654.63;;;2.40;95.84
46394;BME280;32099;53.588;10.176;2023-12-07T09:45:28;101648.28;;;2.41;96.04
46394;BME280;32099;53.588;10.176;2023-12-07T09:47:53;101650.72;;;2.44;96.17
46394;BME280;32099;53.588;10.176;2023-12-07T09:50:23;101653.09;;;2.49;95.46
46394;BME280;32099;53.588;10.176;2023-12-07T09:52:50;101650.97;;;2.54;95.95
46394;BME280;32099;53.588;10.176;2023-12-07T09:55:17;101644.50;;;2.56;95.57
46394;BME280;32099;53.588;10.176;2023-12-07T09:57:43;101642.44;;;2.60;94.48
46394;BME280;32099;53.588;10.176;2023-12-07T10:00:10;101646.41;;;2.54;95.14
46394;BME280;32099;53.588;10.176;2023-12-07T10:02:37;101638.47;;;2.53;94.96
46394;BME280;32099;53.588;10.176;2023-12-07T10:05:03;101565.69;;;2.03;95.46
46394;BME280;32099;53.588;10.176;2023-12-07T10:07:34;101653.97;;;2.49;95.94
46394;BME280;32099;53.588;10.176;2023-12-07T10:10:01;101651.94;;;2.53;95.94
46394;BME280;32099;53.588;10.176;2023-12-07T10:12:27;101655.47;;;2.53;95.31
46394;BME280;32099;53.588;10.176;2023-12-07T10:14:53;101646.34;;;2.56;95.87
46394;BME280;32099;53.588;10.176;2023-12-07T10:17:18;101650.97;;;2.54;95.29
46394;BME280;32099;53.588;10.176;2023-12-07T10:19:52;101654.75;;;2.51;95.69
46394;BME280;32099;53.588;10.176;2023-12-07T10:22:35;101655.72;;;2.50;96.19
46394;BME280;32099;53.588;10.176;2023-12-07T10:25:00;101658.41;;;2.50;95.41
46394;BME280;32099;53.588;10.176;2023-12-07T10:27:26;101660.00;;;2.53;95.22
46394;BME280;32099;53.588;10.176;2023-12-07T10:29:52;101656.97;;;2.57;95.30
46394;BME280;32099;53.588;10.176;2023-12-07T10:32:17;101656.00;;;2.58;95.01
46394;BME280;32099;53.588;10.176;2023-12-07T10:34:44;101662.38;;;2.57;95.47
46394;BME280;32099;53.588;10.176;2023-12-07T10:37:10;101660.66;;;2.56;94.93
46394;BME280;32099;53.588;10.176;2023-12-07T10:39:38;101652.69;;;2.55;95.03
46394;BME280;32099;53.588;10.176;2023-12-07T10:42:05;101654.63;;;2.53;95.42
46394;BME280;32099;53.588;10.176;2023-12-07T10:44:35;101653.66;;;2.54;94.91
46394;BME280;32099;53.588;10.176;2023-12-07T10:47:06;101592.59;;;2.15;95.58
46394;BME280;32099;53.588;10.176;2023-12-07T10:49:34;101659.88;;;2.54;95.70
46394;BME280;32099;53.588;10.176;2023-12-07T10:52:03;101657.09;;;2.56;94.92
46394;BME280;32099;53.588;10.176;2023-12-07T10:54:35;101658.91;;;2.55;94.33
46394;BME280;32099;53.588;10.176;2023-12-07T10:57:09;101660.97;;;2.52;94.99
46394;BME280;32099;53.588;10.176;2023-12-07T10:59:36;101658.41;;;2.50;95.80
46394;BME280;32099;53.588;10.176;2023-12-07T11:02:04;101669.06;;;2.52;95.02
46394;BME280;32099;53.588;10.176;2023-12-07T11:04:35;101663.88;;;2.49;95.80
46394;BME280;32099;53.588;10.176;2023-12-07T11:07:03;101664.75;;;2.49;95.83
46394;BME280;32099;53.588;10.176;2023-12-07T11:09:35;101653.97;;;2.49;95.32
46394;BME280;32099;53.588;10.176;2023-12-07T11:12:11;101651.38;;;2.47;95.96
46394;BME280;32099;53.588;10.176;2023-12-07T11:14:53;101647.72;;;2.49;95.81
46394;BME280;32099;53.588;10.176;2023-12-07T11:17:20;101653.00;;;2.50;95.68
46394;BME280;32099;53.588;10.176;2023-12-07T11:19:46;101650.41;;;2.49;95.80
46394;BME280;32099;53.588;10.176;2023-12-07T11:22:12;101654.06;;;2.47;95.41
46394;BME280;32099;53.588;10.176;2023-12-07T11:24:38;101653.00;;;2.50;95.64
46394;BME280;32099;53.588;10.176;2023-12-07T11:27:20;101645.44;;;2.55;95.40
46394;BME280;32099;53.588;10.176;2023-12-07T11:29:46;101648.06;;;2.57;95.04
46394;BME280;32099;53.588;10.176;2023-12-07T11:32:12;101636.31;;;2.58;95.57
46394;BME280;32099;53.588;10.176;2023-12-07T11:34:39;101634.47;;;2.58;95.35
46394;BME280;32099;53.588;10.176;2023-12-07T11:37:06;101630.69;;;2.61;95.50
46394;BME280;32099;53.588;10.176;2023-12-07T11:39:34;101634.16;;;2.63;95.43
46394;BME280;32099;53.588;10.176;2023-12-07T11:42:09;101634.91;;;2.65;95.50
46394;BME280;32099;53.588;10.176;2023-12-07T11:44:36;101635.75;;;2.66;95.25
46394;BME280;32099;53.588;10.176;2023-12-07T11:47:03;101633.94;;;2.66;94.77
46394;BME280;32099;53.588;10.176;2023-12-07T11:49:29;101629.63;;;2.64;95.69
46394;BME280;32099;53.588;10.176;2023-12-07T11:51:56;101629.63;;;2.64;95.34
46394;BME280;32099;53.588;10.176;2023-12-07T11:54:21;101627.91;;;2.62;95.12
46394;BME280;32099;53.588;10.176;2023-12-07T11:56:51;101638.69;;;2.62;95.59
46394;BME280;32099;53.588;10.176;2023-12-07T11:59:20;101638.00;;;2.59;95.97
46394;BME280;32099;53.588;10.176;2023-12-07T12:01:46;101641.91;;;2.55;95.14
46394;BME280;32099;53.588;10.176;2023-12-07T12:04:12;101638.47;;;2.53;95.33
46394;BME280;32099;53.588;10.176;2023-12-07T12:06:38;101640.31;;;2.52;95.92
46394;BME280;32099;53.588;10.176;2023-12-07T12:09:03;101632.22;;;2.52;95.67
46394;BME280;32099;53.588;10.176;2023-12-07T12:11:29;101626.72;;;2.54;95.52
46394;BME280;32099;53.588;10.176;2023-12-07T12:13:55;101630.94;;;2.58;95.42
46394;BME280;32099;53.588;10.176;2023-12-07T12:16:23;101632.63;;;2.59;96.19
46394;BME280;32099;53.588;10.176;2023-12-07T12:18:49;101619.06;;;2.60;95.90
46394;BME280;32099;53.588;10.176;2023-12-07T12:21:14;101614.78;;;2.58;96.26
46394;BME280;32099;53.588;10.176;2023-12-07T12:23:40;101612.72;;;2.61;96.27
46394;BME280;32099;53.588;10.176;2023-12-07T12:26:06;101608.19;;;2.62;95.44
46394;BME280;32099;53.588;10.176;2023-12-07T12:28:33;101609.91;;;2.63;95.88
46394;BME280;32099;53.588;10.176;2023-12-07T12:30:59;101614.19;;;2.66;95.24
46394;BME280;32099;53.588;10.176;2023-12-07T12:33:27;101605.81;;;2.70;95.26
46394;BME280;32099;53.588;10.176;2023-12-07T12:36:00;101602.88;;;2.73;95.73
46394;BME280;32099;53.588;10.176;2023-12-07T12:38:28;101604.59;;;2.74;95.60
46394;BME280;32099;53.588;10.176;2023-12-07T12:40:54;101601.28;;;2.71;95.03
46394;BME280;32099;53.588;10.176;2023-12-07T12:43:19;101598.47;;;2.72;95.05
46394;BME280;32099;53.588;10.176;2023-12-07T12:45:45;101594.28;;;2.68;95.23